Time;durP1;ratioP1;P1;durP2;ratioP2;P2;SDS_P1;SDS_P2;PMS_P1;PMS_P2;Temp;Humidity;BMP_temperature;BMP_pressure;BME280_temperature;BME280_humidity;BME280_pressure;Samples;Min_cycle;Max_cycle;Signal;HPM_P1;HPM_P2
2023/07/18 00:00:43;;;;;;;6.27;3.90;;;17.00;99.90;;;;;;4943861;28;20704;-76
2023/07/18 00:03:10;;;;;;;5.53;3.77;;;16.90;99.90;;;;;;4942624;28;20738;-76
2023/07/18 00:05:39;;;;;;;5.43;3.27;;;16.80;99.90;;;;;;4944004;28;20253;-75
2023/07/18 00:08:07;;;;;;;5.63;3.80;;;16.80;99.90;;;;;;4935219;29;20219;-76
2023/07/18 00:10:34;;;;;;;5.63;3.87;;;16.70;99.90;;;;;;4930015;29;20221;-75
2023/07/18 00:13:00;;;;;;;6.83;3.57;;;16.60;99.90;;;;;;4944469;28;20196;-76
2023/07/18 00:15:28;;;;;;;6.67;3.77;;;16.50;99.90;;;;;;4949065;29;20266;-75
2023/07/18 00:17:55;;;;;;;7.10;5.20;;;16.50;99.90;;;;;;4942644;29;20205;-76
2023/07/18 00:20:23;;;;;;;4.20;3.40;;;16.50;99.90;;;;;;4945700;28;20223;-75
2023/07/18 00:22:51;;;;;;;6.23;5.63;;;16.40;99.90;;;;;;4937265;28;20292;-76
2023/07/18 00:25:19;;;;;;;4.93;3.77;;;16.40;99.90;;;;;;4945201;28;20203;-76
2023/07/18 00:27:47;;;;;;;7.23;4.33;;;16.30;99.90;;;;;;4940307;28;20233;-76
2023/07/18 00:30:14;;;;;;;6.43;4.00;;;16.30;99.90;;;;;;4941161;28;20577;-76
2023/07/18 00:32:42;;;;;;;6.60;6.00;;;16.20;99.90;;;;;;4946541;28;20207;-76
2023/07/18 00:35:11;;;;;;;6.97;6.27;;;16.20;99.90;;;;;;4938770;29;20207;-76
2023/07/18 00:37:39;;;;;;;8.33;6.70;;;16.20;99.90;;;;;;4945315;28;20199;-76
2023/07/18 00:40:10;;;;;;;7.53;6.83;;;16.10;99.90;;;;;;4948517;29;20310;-76
2023/07/18 00:42:37;;;;;;;8.67;6.90;;;16.00;99.90;;;;;;4943416;28;20211;-76
2023/07/18 00:45:07;;;;;;;7.00;6.27;;;16.00;99.90;;;;;;4943647;28;20228;-75
2023/07/18 00:47:37;;;;;;;7.43;6.73;;;15.90;99.90;;;;;;4936636;28;20234;-75
2023/07/18 00:50:07;;;;;;;8.10;6.70;;;15.90;99.90;;;;;;4945343;29;20313;-75
2023/07/18 00:52:35;;;;;;;7.70;6.97;;;15.90;99.90;;;;;;4946341;28;20294;-75
2023/07/18 00:55:03;;;;;;;5.73;4.07;;;15.90;99.90;;;;;;4946366;28;20639;-75
2023/07/18 00:57:35;;;;;;;5.23;4.17;;;15.80;99.90;;;;;;4951383;29;20206;-75
2023/07/18 01:00:08;;;;;;;7.07;6.43;;;15.80;99.90;;;;;;4945388;29;20248;-75
2023/07/18 01:02:35;;;;;;;6.90;4.33;;;15.70;99.90;;;;;;4939599;28;20253;-76
2023/07/18 01:05:02;;;;;;;5.07;3.50;;;15.70;99.90;;;;;;4935649;28;20217;-75
2023/07/18 01:07:29;;;;;;;5.03;4.20;;;15.70;99.90;;;;;;4943542;28;20640;-75
2023/07/18 01:10:14;;;;;;;7.00;6.30;;;15.70;99.90;;;;;;4947760;28;20670;-75
2023/07/18 01:12:43;;;;;;;7.20;6.50;;;15.70;99.90;;;;;;4945199;28;20205;-76
2023/07/18 01:15:12;;;;;;;8.40;7.33;;;15.70;99.90;;;;;;4943200;28;20211;-76
2023/07/18 01:17:43;;;;;;;6.57;4.27;;;15.60;99.90;;;;;;4940186;29;20665;-75
2023/07/18 01:20:14;;;;;;;7.43;4.60;;;15.60;99.90;;;;;;4947696;29;20216;-75
2023/07/18 01:22:43;;;;;;;8.33;7.07;;;15.60;99.90;;;;;;4938951;28;20629;-75
2023/07/18 01:25:14;;;;;;;8.67;6.30;;;15.60;99.90;;;;;;4947182;28;20758;-75
2023/07/18 01:27:41;;;;;;;5.33;4.20;;;15.50;99.90;;;;;;4942090;28;20211;-76
2023/07/18 01:30:09;;;;;;;6.13;4.30;;;15.60;99.90;;;;;;4943792;28;20276;-75
2023/07/18 01:32:37;;;;;;;4.97;4.03;;;15.50;99.90;;;;;;4945250;29;20292;-75
2023/07/18 01:35:08;;;;;;;5.50;3.77;;;15.50;99.90;;;;;;4938923;28;20202;-76
2023/07/18 01:37:35;;;;;;;6.10;3.80;;;15.50;99.90;;;;;;4942282;29;20198;-75
2023/07/18 01:40:06;;;;;;;5.53;4.03;;;15.50;99.90;;;;;;4939951;29;20225;-75
2023/07/18 01:42:33;;;;;;;6.73;4.20;;;15.50;99.90;;;;;;4951579;29;20221;-76
2023/07/18 01:45:02;;;;;;;7.57;6.83;;;15.40;99.90;;;;;;4940224;28;20202;-75
2023/07/18 01:47:29;;;;;;;6.37;5.43;;;15.40;99.90;;;;;;4939887;28;20565;-76
2023/07/18 01:49:56;;;;;;;7.93;6.60;;;15.40;99.90;;;;;;4937626;28;20283;-76
2023/07/18 01:52:23;;;;;;;6.40;5.67;;;15.40;99.90;;;;;;4941324;29;20205;-76
2023/07/18 01:54:53;;;;;;;7.97;6.47;;;15.40;99.90;;;;;;4951199;28;20254;-76
2023/07/18 01:57:21;;;;;;;7.07;4.50;;;15.30;99.90;;;;;;4948441;29;20582;-75
2023/07/18 01:59:47;;;;;;;5.80;4.37;;;15.20;99.90;;;;;;4938798;29;20774;-76
2023/07/18 02:02:14;;;;;;;5.27;3.60;;;15.20;99.90;;;;;;4942418;28;20203;-76
2023/07/18 02:04:41;;;;;;;7.37;6.50;;;15.20;99.90;;;;;;4938658;28;20205;-74
2023/07/18 02:07:08;;;;;;;6.20;4.43;;;15.20;99.90;;;;;;4941804;28;20211;-75
2023/07/18 02:09:35;;;;;;;9.00;4.37;;;15.20;99.90;;;;;;4943407;29;20227;-76
2023/07/18 02:12:02;;;;;;;7.90;4.87;;;15.10;99.90;;;;;;4947479;28;20197;-75
2023/07/18 02:14:30;;;;;;;8.17;4.47;;;15.10;99.90;;;;;;4949293;29;20280;-76
2023/07/18 02:16:57;;;;;;;7.07;4.43;;;15.00;99.90;;;;;;4942881;28;20199;-76
2023/07/18 02:19:24;;;;;;;6.73;4.60;;;15.00;99.90;;;;;;4937155;28;20247;-75
2023/07/18 02:21:51;;;;;;;6.87;3.93;;;15.00;99.90;;;;;;4935394;28;20231;-75
2023/07/18 02:24:18;;;;;;;5.90;4.03;;;15.00;99.90;;;;;;4943201;29;20208;-76
2023/07/18 02:26:44;;;;;;;7.53;4.17;;;15.00;99.90;;;;;;4944485;28;20634;-76
2023/07/18 02:29:13;;;;;;;6.63;4.30;;;15.00;99.90;;;;;;4944469;28;20286;-76
2023/07/18 02:31:41;;;;;;;6.23;4.37;;;14.90;99.90;;;;;;4950322;29;20323;-76
2023/07/18 02:34:08;;;;;;;6.50;4.60;;;14.90;99.90;;;;;;4942948;29;20245;-75
2023/07/18 02:36:34;;;;;;;5.83;4.53;;;14.90;99.90;;;;;;4938727;28;20220;-75
2023/07/18 02:39:03;;;;;;;6.10;4.20;;;14.90;99.90;;;;;;4948184;28;20217;-75
2023/07/18 02:41:30;;;;;;;6.27;4.20;;;15.00;99.90;;;;;;4944353;28;20214;-77
2023/07/18 02:43:57;;;;;;;7.27;4.43;;;15.00;99.90;;;;;;4936553;29;20206;-76
2023/07/18 02:46:24;;;;;;;5.63;4.17;;;15.00;99.90;;;;;;4940080;28;20259;-75
2023/07/18 02:48:52;;;;;;;5.53;4.53;;;15.00;99.90;;;;;;4937910;28;20707;-75
2023/07/18 02:51:19;;;;;;;5.43;4.10;;;15.00;99.90;;;;;;4933703;29;20210;-75
2023/07/18 02:53:46;;;;;;;6.53;4.10;;;15.10;99.90;;;;;;4922734;29;20199;-77
2023/07/18 02:56:12;;;;;;;5.20;3.93;;;15.10;99.90;;;;;;4929578;29;20238;-77
2023/07/18 02:58:41;;;;;;;5.50;3.93;;;15.00;99.90;;;;;;4927752;29;20233;-77
2023/07/18 03:01:08;;;;;;;6.27;4.10;;;15.00;99.90;;;;;;4934826;29;20253;-78
2023/07/18 03:03:38;;;;;;;5.60;4.23;;;15.00;99.90;;;;;;4936305;29;20211;-76
2023/07/18 03:06:07;;;;;;;4.80;3.87;;;15.00;99.90;;;;;;4929432;29;20591;-77
2023/07/18 03:08:34;;;;;;;6.07;4.10;;;14.90;99.90;;;;;;4931095;29;20255;-78
2023/07/18 03:11:01;;;;;;;5.07;3.60;;;14.80;99.90;;;;;;4928241;29;20193;-75
2023/07/18 03:13:28;;;;;;;5.80;3.97;;;14.80;99.90;;;;;;4931460;29;20559;-77
2023/07/18 03:15:55;;;;;;;4.87;3.93;;;14.70;99.90;;;;;;4943187;29;20214;-77
2023/07/18 03:18:23;;;;;;;4.57;3.57;;;14.60;99.90;;;;;;4938965;29;20209;-77
2023/07/18 03:20:50;;;;;;;7.63;4.10;;;14.60;99.90;;;;;;4938135;29;20199;-78
2023/07/18 03:23:18;;;;;;;7.17;4.37;;;14.50;99.90;;;;;;4950991;28;20223;-77
2023/07/18 03:25:46;;;;;;;7.00;6.27;;;14.50;99.90;;;;;;4946760;28;20679;-77
2023/07/18 03:28:13;;;;;;;4.77;3.57;;;14.40;99.90;;;;;;4946214;28;20221;-77
2023/07/18 03:30:40;;;;;;;6.80;4.10;;;14.40;99.90;;;;;;4942490;28;20254;-74
2023/07/18 03:33:07;;;;;;;4.67;3.80;;;14.40;99.90;;;;;;4945533;28;20213;-74
2023/07/18 03:35:35;;;;;;;5.17;3.80;;;14.30;99.90;;;;;;4929310;28;20199;-74
2023/07/18 03:38:02;;;;;;;7.37;5.67;;;14.30;99.90;;;;;;4937362;28;20211;-74
2023/07/18 03:40:30;;;;;;;7.07;5.97;;;14.30;99.90;;;;;;4942414;28;20235;-74
2023/07/18 03:42:56;;;;;;;7.43;4.17;;;14.20;99.90;;;;;;4950569;28;20226;-74
2023/07/18 03:45:23;;;;;;;6.80;4.73;;;14.30;99.90;;;;;;4944455;29;20209;-74
2023/07/18 03:47:50;;;;;;;6.07;3.63;;;14.30;99.90;;;;;;4935401;28;20234;-74
2023/07/18 03:50:18;;;;;;;5.50;4.07;;;14.20;99.90;;;;;;4946102;28;20580;-74
2023/07/18 03:52:45;;;;;;;6.23;4.20;;;14.30;99.90;;;;;;4937637;29;20277;-74
2023/07/18 03:55:12;;;;;;;7.90;7.20;;;14.30;99.90;;;;;;4942464;29;20194;-74
2023/07/18 03:57:41;;;;;;;6.13;4.43;;;14.20;99.90;;;;;;4938143;28;20649;-74
2023/07/18 04:00:13;;;;;;;5.33;3.70;;;14.20;99.90;;;;;;4946755;28;20227;-74
2023/07/18 04:02:40;;;;;;;5.50;3.97;;;14.10;99.90;;;;;;4945158;28;20584;-74
2023/07/18 04:05:08;;;;;;;5.03;4.53;;;14.10;99.90;;;;;;4929862;29;20234;-74
2023/07/18 04:07:35;;;;;;;7.83;5.00;;;14.20;99.90;;;;;;4936937;29;20200;-74
2023/07/18 04:10:01;;;;;;;7.73;6.63;;;14.10;99.90;;;;;;4946263;28;20282;-74
2023/07/18 04:12:28;;;;;;;7.30;6.60;;;14.20;99.90;;;;;;4941250;29;20570;-74
2023/07/18 04:14:57;;;;;;;8.57;7.60;;;14.30;99.90;;;;;;4956199;29;20211;-74
2023/07/18 04:17:24;;;;;;;7.83;7.13;;;14.30;99.90;;;;;;4938031;29;20214;-74
2023/07/18 04:19:53;;;;;;;7.00;6.40;;;14.30;99.90;;;;;;4945725;29;20268;-75
2023/07/18 04:22:20;;;;;;;6.73;6.13;;;14.30;99.90;;;;;;4942374;28;20207;-75
2023/07/18 04:24:46;;;;;;;7.07;6.40;;;14.30;99.90;;;;;;4948220;28;20203;-74
2023/07/18 04:27:13;;;;;;;7.00;5.90;;;14.30;99.90;;;;;;4948249;28;20198;-74
2023/07/18 04:29:40;;;;;;;7.67;7.07;;;14.30;99.90;;;;;;4949222;28;20270;-74
2023/07/18 04:32:09;;;;;;;8.00;6.90;;;14.30;99.90;;;;;;4951595;28;20205;-75
2023/07/18 04:34:36;;;;;;;5.10;3.90;;;14.40;99.90;;;;;;4942472;29;20286;-75
2023/07/18 04:37:03;;;;;;;7.67;3.50;;;14.50;99.90;;;;;;4943717;28;20209;-74
2023/07/18 04:39:30;;;;;;;4.93;3.70;;;14.50;99.90;;;;;;4941401;28;20217;-74
2023/07/18 04:41:57;;;;;;;4.30;3.90;;;14.60;99.90;;;;;;4939570;28;20232;-75
2023/07/18 04:44:24;;;;;;;4.93;3.87;;;14.70;99.90;;;;;;4947905;28;20228;-75
2023/07/18 04:46:52;;;;;;;6.17;4.30;;;14.80;99.90;;;;;;4945266;28;20221;-73
2023/07/18 04:49:22;;;;;;;5.17;4.27;;;14.90;99.90;;;;;;4940138;28;20222;-75
2023/07/18 04:51:51;;;;;;;6.80;6.20;;;15.00;99.90;;;;;;4951553;29;20207;-75
2023/07/18 04:54:18;;;;;;;5.10;3.77;;;15.20;99.90;;;;;;4945160;29;20204;-75
2023/07/18 04:56:44;;;;;;;7.77;7.07;;;15.40;99.90;;;;;;4942448;28;20699;-75
2023/07/18 04:59:11;;;;;;;7.07;6.47;;;15.60;99.90;;;;;;4939396;28;20225;-75
2023/07/18 05:01:41;;;;;;;5.83;4.10;;;15.90;99.90;;;;;;4947465;28;20225;-74
2023/07/18 05:04:08;;;;;;;6.40;4.33;;;16.20;99.90;;;;;;4945772;28;20578;-75
2023/07/18 05:06:36;;;;;;;5.13;3.87;;;16.40;99.90;;;;;;4944333;28;20264;-75
2023/07/18 05:09:03;;;;;;;5.33;3.73;;;16.60;99.90;;;;;;4934161;29;20330;-75
2023/07/18 05:11:30;;;;;;;4.60;3.80;;;16.70;99.90;;;;;;4931795;29;20200;-75
2023/07/18 05:13:57;;;;;;;8.37;7.57;;;16.80;99.90;;;;;;4952214;29;20280;-75
2023/07/18 05:16:23;;;;;;;4.67;3.90;;;16.80;99.90;;;;;;4946616;28;20226;-75
2023/07/18 05:18:50;;;;;;;5.60;4.63;;;16.90;99.90;;;;;;4943875;28;20222;-75
2023/07/18 05:21:17;;;;;;;6.20;5.43;;;17.00;99.90;;;;;;4938986;28;20236;-75
2023/07/18 05:23:45;;;;;;;7.20;6.00;;;17.00;99.90;;;;;;4936411;28;20208;-75
2023/07/18 05:26:12;;;;;;;5.13;4.63;;;17.20;99.90;;;;;;4945026;28;20230;-75
2023/07/18 05:28:39;;;;;;;5.77;4.70;;;17.40;99.90;;;;;;4932347;29;20223;-75
2023/07/18 05:31:09;;;;;;;8.73;7.30;;;17.70;99.90;;;;;;4950799;28;20273;-75
2023/07/18 05:33:36;;;;;;;6.67;4.60;;;17.80;99.90;;;;;;4947292;29;20680;-75
2023/07/18 05:36:04;;;;;;;7.40;6.47;;;18.00;99.90;;;;;;4939192;28;20633;-75
2023/07/18 05:38:30;;;;;;;6.23;4.30;;;18.10;99.90;;;;;;4937543;28;20203;-75
2023/07/18 05:40:58;;;;;;;5.93;4.30;;;18.10;99.90;;;;;;4947474;28;20202;-75
2023/07/18 05:43:25;;;;;;;5.80;5.20;;;18.10;99.90;;;;;;4946392;28;20222;-75
2023/07/18 05:45:52;;;;;;;7.03;6.40;;;18.10;99.90;;;;;;4944021;28;20213;-75
2023/07/18 05:48:19;;;;;;;5.33;4.37;;;18.20;99.90;;;;;;4947160;28;20211;-75
2023/07/18 05:50:46;;;;;;;6.43;5.83;;;18.40;99.90;;;;;;4948983;29;20708;-75
2023/07/18 05:53:12;;;;;;;7.87;4.23;;;18.70;99.90;;;;;;4939587;28;20211;-75
2023/07/18 05:55:39;;;;;;;9.37;7.47;;;19.30;99.90;;;;;;4938651;28;20218;-76
2023/07/18 06:00:47;;;;;;;8.00;4.10;;;19.80;99.90;;;;;;5121143;27;21034;-75
2023/07/18 06:03:14;;;;;;;7.27;5.70;;;21.00;99.90;;;;;;5116353;27;20237;-75
2023/07/18 06:05:41;;;;;;;8.50;4.80;;;21.40;99.90;;;;;;5112360;28;20193;-74
2023/07/18 06:08:09;;;;;;;6.93;6.33;;;22.00;99.90;;;;;;5121427;28;20665;-75
2023/07/18 06:10:36;;;;;;;8.80;7.90;;;22.20;99.90;;;;;;5121951;28;20225;-75
2023/07/18 06:13:03;;;;;;;5.67;4.43;;;22.20;99.90;;;;;;5127035;27;20216;-75
2023/07/18 06:15:30;;;;;;;7.17;6.07;;;22.40;99.90;;;;;;5117799;28;20199;-76
2023/07/18 06:17:59;;;;;;;7.47;6.73;;;22.50;99.90;;;;;;5114353;27;20224;-75
2023/07/18 06:20:26;;;;;;;8.47;7.67;;;22.80;99.90;;;;;;5109359;28;20216;-75
2023/07/18 06:22:54;;;;;;;7.23;6.53;;;22.70;99.90;;;;;;5117918;27;20232;-76
2023/07/18 06:25:21;;;;;;;7.07;5.90;;;22.50;99.90;;;;;;5122139;27;20189;-76
2023/07/18 06:27:48;;;;;;;5.73;4.70;;;21.90;99.90;;;;;;5124801;27;20236;-81
2023/07/18 06:30:15;;;;;;;4.90;4.30;;;22.00;99.90;;;;;;5120351;28;20639;-80
2023/07/18 06:32:42;;;;;;;5.97;3.50;;;22.10;99.90;;;;;;5123428;28;20197;-83
2023/07/18 06:35:12;;;;;;;8.90;6.70;;;22.40;99.90;;;;;;5113903;27;20212;-80
2023/07/18 06:37:39;;;;;;;6.73;4.60;;;22.60;99.90;;;;;;5122137;27;20300;-82
2023/07/18 06:40:06;;;;;;;7.10;6.40;;;23.10;99.90;;;;;;5113616;28;20209;-80
2023/07/18 06:42:33;;;;;;;8.07;4.90;;;23.70;99.90;;;;;;5123980;28;20192;-79
2023/07/18 06:45:00;;;;;;;6.57;5.90;;;24.00;99.90;;;;;;5125703;27;20206;-80
2023/07/18 06:47:27;;;;;;;5.53;4.53;;;24.20;99.90;;;;;;5128326;28;20632;-79
2023/07/18 06:49:54;;;;;;;6.87;6.17;;;24.50;99.90;;;;;;5129168;27;20239;-78
2023/07/18 06:52:22;;;;;;;7.03;5.77;;;24.60;99.90;;;;;;5120604;27;20192;-79
2023/07/18 06:54:49;;;;;;;6.33;5.17;;;24.70;99.90;;;;;;5122386;28;20228;-79
2023/07/18 06:57:16;;;;;;;5.77;5.27;;;24.80;99.90;;;;;;5119975;28;20196;-80
2023/07/18 06:59:43;;;;;;;8.53;6.27;;;24.90;99.90;;;;;;5108708;27;20305;-76
2023/07/18 07:02:11;;;;;;;6.13;4.30;;;24.70;99.90;;;;;;5112227;28;20194;-75
2023/07/18 07:04:39;;;;;;;7.27;6.50;;;24.90;99.90;;;;;;5108871;28;20251;-75
2023/07/18 07:07:06;;;;;;;5.30;3.67;;;24.80;99.90;;;;;;5099139;28;20194;-75
2023/07/18 07:09:34;;;;;;;4.20;3.30;;;25.00;99.90;;;;;;5121247;28;20232;-75
2023/07/18 07:12:01;;;;;;;5.83;5.23;;;25.30;99.90;;;;;;5103464;28;20727;-75
2023/07/18 07:14:28;;;;;;;4.97;3.90;;;25.70;99.90;;;;;;5102890;28;20409;-75
2023/07/18 07:16:56;;;;;;;7.07;6.47;;;25.70;99.90;;;;;;5092468;28;20198;-75
2023/07/18 07:19:23;;;;;;;6.43;5.17;;;25.80;99.90;;;;;;5096232;28;20736;-75
2023/07/18 07:21:50;;;;;;;6.13;4.40;;;25.60;99.90;;;;;;5101700;28;20707;-75
2023/07/18 07:24:17;;;;;;;7.20;6.50;;;25.70;99.90;;;;;;5106848;28;20213;-75
2023/07/18 07:26:45;;;;;;;7.23;6.53;;;25.70;99.90;;;;;;5105931;28;20194;-75
2023/07/18 07:29:13;;;;;;;6.70;5.37;;;25.70;99.90;;;;;;5105449;28;20208;-77
2023/07/18 07:31:39;;;;;;;4.80;3.07;;;25.60;99.90;;;;;;5107818;28;20637;-78
2023/07/18 07:34:06;;;;;;;5.37;4.53;;;25.50;99.90;;;;;;5101503;28;20201;-78
2023/07/18 07:36:34;;;;;;;6.15;5.45;;;25.60;99.90;;;;;;5100124;28;20423;-77
2023/07/18 07:39:01;;;;;;;6.63;5.97;;;25.80;99.90;;;;;;5105130;28;20229;-78
2023/07/18 07:41:27;;;;;;;6.67;5.07;;;26.00;99.90;;;;;;5110716;28;20221;-78
2023/07/18 07:43:56;;;;;;;8.20;4.90;;;26.30;99.90;;;;;;5107639;28;20275;-78
2023/07/18 07:46:22;;;;;;;6.93;3.53;;;26.40;99.90;;;;;;5110548;28;20622;-78
2023/07/18 07:48:49;;;;;;;7.10;6.50;;;26.50;99.90;;;;;;5086150;28;20217;-78
2023/07/18 07:51:16;;;;;;;5.77;5.20;;;26.50;99.90;;;;;;5086006;28;20202;-78
2023/07/18 07:53:44;;;;;;;5.00;3.40;;;26.80;99.90;;;;;;5088799;28;20576;-78
2023/07/18 07:56:10;;;;;;;5.67;4.00;;;26.80;99.90;;;;;;5086246;28;20202;-79
2023/07/18 07:58:37;;;;;;;5.03;3.90;;;26.80;99.90;;;;;;5087732;28;20214;-79
2023/07/18 08:01:06;;;;;;;7.00;4.40;;;26.90;99.90;;;;;;5097762;28;20217;-79
2023/07/18 08:03:33;;;;;;;6.23;4.83;;;27.20;99.90;;;;;;5086593;28;20218;-78
2023/07/18 08:06:00;;;;;;;6.23;5.43;;;27.30;99.90;;;;;;5090601;28;20710;-79
2023/07/18 08:08:27;;;;;;;6.40;5.03;;;27.40;99.90;;;;;;5085612;28;20648;-78
2023/07/18 08:10:53;;;;;;;5.47;3.40;;;27.60;99.90;;;;;;5084341;28;20195;-78
2023/07/18 08:13:20;;;;;;;5.53;4.07;;;27.50;99.90;;;;;;5092766;28;20247;-79
2023/07/18 08:15:47;;;;;;;4.90;3.27;;;27.40;99.90;;;;;;5086122;28;20218;-79
2023/07/18 08:18:15;;;;;;;4.60;3.40;;;27.30;99.90;;;;;;5086845;28;20206;-79
2023/07/18 08:20:42;;;;;;;3.80;2.70;;;27.70;99.90;;;;;;5092586;28;20279;-78
2023/07/18 08:23:09;;;;;;;5.87;5.23;;;27.70;99.90;;;;;;5086667;28;20482;-79
2023/07/18 08:25:36;;;;;;;6.97;6.38;;;27.80;99.90;;;;;;5091919;28;20488;-79
2023/07/18 08:28:03;;;;;;;7.10;6.33;;;27.60;99.90;;;;;;5092851;28;20259;-79
2023/07/18 08:30:30;;;;;;;6.80;6.20;;;27.50;99.90;;;;;;5086574;28;20440;-79
2023/07/18 08:32:56;;;;;;;6.10;5.50;;;27.80;99.90;;;;;;5089896;28;20264;-79
2023/07/18 08:35:25;;;;;;;5.77;4.50;;;27.80;99.90;;;;;;5081752;28;20202;-79
2023/07/18 08:37:51;;;;;;;5.33;4.80;;;27.60;99.90;;;;;;5091555;28;20198;-79
2023/07/18 08:40:18;;;;;;;5.80;5.30;;;28.10;99.90;;;;;;5092296;28;20313;-79
2023/07/18 08:42:46;;;;;;;6.80;6.10;;;28.00;99.90;;;;;;5083969;28;20209;-79
2023/07/18 08:45:15;;;;;;;5.10;4.60;;;27.70;99.90;;;;;;5080701;28;20213;-79
2023/07/18 08:47:43;;;;;;;5.93;4.77;;;28.10;99.90;;;;;;5091081;28;20221;-80
2023/07/18 08:50:11;;;;;;;6.47;5.13;;;28.20;99.20;;;;;;5083782;28;20254;-80
2023/07/18 08:52:40;;;;;;;6.70;5.77;;;28.20;99.90;;;;;;5085369;28;20708;-78
2023/07/18 08:55:07;;;;;;;5.77;4.80;;;28.60;99.90;;;;;;5089714;28;20256;-79
2023/07/18 08:57:34;;;;;;;7.70;5.50;;;28.30;98.80;;;;;;5082043;28;20205;-79
2023/07/18 09:00:04;;;;;;;5.23;4.63;;;28.50;99.10;;;;;;5081080;28;20656;-78
2023/07/18 09:02:31;;;;;;;6.23;5.00;;;28.70;99.50;;;;;;5085527;28;20194;-79
2023/07/18 09:04:58;;;;;;;6.43;4.90;;;28.60;97.70;;;;;;5089083;28;20774;-79
2023/07/18 09:07:27;;;;;;;6.07;5.03;;;28.70;98.20;;;;;;5084755;28;20197;-80
2023/07/18 09:09:57;;;;;;;5.20;4.80;;;28.90;99.00;;;;;;5087325;28;20214;-81
2023/07/18 09:12:24;;;;;;;6.17;5.67;;;29.00;98.50;;;;;;5084819;28;20194;-78
2023/07/18 09:14:56;;;;;;;6.33;5.73;;;29.10;98.20;;;;;;5081354;28;20256;-80
2023/07/18 09:17:23;;;;;;;6.53;5.93;;;28.70;97.50;;;;;;5084468;28;20201;-82
2023/07/18 09:19:51;;;;;;;8.93;5.80;;;28.50;97.90;;;;;;5087054;28;20218;-78
2023/07/18 09:22:18;;;;;;;6.10;5.50;;;28.40;98.40;;;;;;5095760;28;20202;-78
2023/07/18 09:24:45;;;;;;;6.67;4.40;;;28.80;98.70;;;;;;5104077;28;20201;-78
2023/07/18 09:27:18;;;;;;;6.47;3.20;;;28.90;97.20;;;;;;5098948;28;20197;-78
2023/07/18 09:29:46;;;;;;;5.33;4.63;;;28.70;97.50;;;;;;5110998;28;20221;-78
2023/07/18 09:32:17;;;;;;;6.07;5.57;;;29.00;98.10;;;;;;5107807;28;20276;-78
2023/07/18 09:34:52;;;;;;;6.67;6.03;;;29.40;97.30;;;;;;5112927;28;20652;-78
2023/07/18 09:37:19;;;;;;;6.80;6.20;;;29.60;98.60;;;;;;5107187;28;20529;-79
2023/07/18 09:39:47;;;;;;;7.20;6.60;;;29.70;97.30;;;;;;5099938;28;20210;-80
2023/07/18 09:42:14;;;;;;;7.10;6.50;;;30.00;97.00;;;;;;5096921;28;20426;-81
2023/07/18 09:44:43;;;;;;;5.40;4.90;;;30.20;96.90;;;;;;5084756;28;20198;-78
2023/07/18 09:47:10;;;;;;;9.03;6.43;;;30.40;96.60;;;;;;5090660;28;20560;-78
2023/07/18 09:49:38;;;;;;;6.90;6.33;;;30.20;95.30;;;;;;5093374;28;20274;-78
2023/07/18 09:52:07;;;;;;;7.30;6.70;;;30.40;97.60;;;;;;5088371;28;20205;-78
2023/07/18 09:54:34;;;;;;;7.40;6.57;;;30.50;95.20;;;;;;5085323;28;20235;-78
2023/07/18 09:57:05;;;;;;;7.37;6.67;;;30.60;95.80;;;;;;5090664;28;20637;-79
2023/07/18 09:59:35;;;;;;;7.37;6.77;;;30.70;95.60;;;;;;5083121;28;20245;-78
2023/07/18 10:02:06;;;;;;;7.87;7.00;;;30.80;96.40;;;;;;5090929;28;20209;-79
2023/07/18 10:04:33;;;;;;;7.77;7.07;;;30.70;94.70;;;;;;5098428;28;20262;-78
2023/07/18 10:07:01;;;;;;;7.10;6.50;;;30.30;95.60;;;;;;5107149;28;20236;-78
2023/07/18 10:09:28;;;;;;;6.97;6.37;;;30.20;96.80;;;;;;5102414;28;20219;-78
2023/07/18 10:12:09;;;;;;;7.07;6.47;;;30.10;95.70;;;;;;5104616;28;20198;-78
2023/07/18 10:14:50;;;;;;;7.03;6.50;;;29.80;95.20;;;;;;5098991;28;20194;-78
2023/07/18 10:17:29;;;;;;;7.35;6.70;;;29.70;96.90;;;;;;5106363;28;20442;-79
2023/07/18 10:19:56;;;;;;;6.90;6.27;;;29.30;96.10;;;;;;5100465;28;20251;-78
2023/07/18 10:22:26;;;;;;;6.73;6.23;;;28.90;96.90;;;;;;5111489;28;20208;-78
2023/07/18 10:24:53;;;;;;;4.55;3.38;;;28.40;97.70;;;;;;5104635;28;20504;-78
2023/07/18 10:27:24;;;;;;;4.93;4.40;;;27.90;98.70;;;;;;5100899;28;20650;-77
2023/07/18 10:30:06;;;;;;;6.20;4.70;;;27.40;99.30;;;;;;5100185;28;20497;-78
2023/07/18 10:32:35;;;;;;;6.28;5.68;;;27.10;98.90;;;;;;5096881;28;20837;-79
2023/07/18 10:35:07;;;;;;;4.57;3.00;;;27.20;98.40;;;;;;5083417;28;20605;-79
2023/07/18 10:37:36;;;;;;;5.20;3.00;;;27.40;98.50;;;;;;5087537;28;20230;-79
2023/07/18 10:40:05;;;;;;;4.73;3.10;;;27.50;99.40;;;;;;5096205;28;20210;-79
2023/07/18 10:42:34;;;;;;;6.23;5.73;;;27.70;99.30;;;;;;5091175;28;20277;-79
2023/07/18 10:45:04;;;;;;;6.93;3.30;;;28.10;99.60;;;;;;5090828;28;20587;-78
2023/07/18 10:47:31;;;;;;;5.30;3.33;;;28.70;98.20;;;;;;5096550;28;20201;-78
2023/07/18 10:50:00;;;;;;;4.93;3.00;;;29.30;98.30;;;;;;5093422;28;20694;-79
2023/07/18 10:52:28;;;;;;;6.43;4.47;;;29.30;98.80;;;;;;5090772;28;20195;-79
2023/07/18 10:54:56;;;;;;;6.27;3.43;;;29.50;97.70;;;;;;5096123;28;20675;-81
2023/07/18 10:57:27;;;;;;;6.47;5.87;;;29.50;96.10;;;;;;5097227;28;20190;-78
2023/07/18 10:59:54;;;;;;;4.77;3.90;;;29.40;96.90;;;;;;5099114;28;20721;-79
2023/07/18 11:02:22;;;;;;;8.50;7.30;;;29.30;96.30;;;;;;5094281;28;20213;-79
2023/07/18 11:04:51;;;;;;;6.53;3.60;;;29.10;98.00;;;;;;5091136;28;20425;-79
2023/07/18 11:07:31;;;;;;;4.27;3.80;;;28.80;98.80;;;;;;5094430;28;20588;-80
2023/07/18 11:09:58;;;;;;;6.50;5.33;;;28.40;98.70;;;;;;5107372;28;20221;-79
2023/07/18 11:12:25;;;;;;;5.37;4.80;;;28.00;99.40;;;;;;5088581;28;20256;-78
2023/07/18 11:14:52;;;;;;;7.37;4.80;;;27.80;99.80;;;;;;5108469;28;20205;-79
2023/07/18 11:17:19;;;;;;;7.47;4.83;;;27.90;99.90;;;;;;5111806;28;20575;-78
2023/07/18 11:19:48;;;;;;;6.17;4.13;;;28.10;99.90;;;;;;5112761;28;20241;-79
2023/07/18 11:22:15;;;;;;;4.67;3.57;;;28.10;99.70;;;;;;5115019;28;20221;-79
2023/07/18 11:24:45;;;;;;;6.10;4.17;;;28.10;99.90;;;;;;5110863;28;20205;-78
2023/07/18 11:27:15;;;;;;;8.30;4.50;;;27.80;99.90;;;;;;5113880;28;20197;-79
2023/07/18 11:29:49;;;;;;;6.93;6.23;;;27.40;99.90;;;;;;5105868;28;20699;-77
2023/07/18 11:32:16;;;;;;;11.83;6.50;;;27.10;99.90;;;;;;5101620;28;20295;-77
2023/07/18 11:34:43;;;;;;;5.97;5.07;;;26.80;99.90;;;;;;5100496;28;20205;-79
2023/07/18 11:37:09;;;;;;;8.10;4.40;;;26.60;99.90;;;;;;5108948;28;20233;-78
2023/07/18 11:39:36;;;;;;;8.30;7.50;;;26.50;99.90;;;;;;5114904;28;20232;-77
2023/07/18 11:42:08;;;;;;;4.90;4.50;;;26.30;99.90;;;;;;5109505;28;20213;-78
2023/07/18 11:44:35;;;;;;;6.80;6.17;;;26.10;99.90;;;;;;5095870;28;20216;-77
2023/07/18 11:47:02;;;;;;;7.70;6.03;;;25.90;99.90;;;;;;5103466;28;20197;-77
2023/07/18 11:49:36;;;;;;;6.43;5.47;;;25.70;99.90;;;;;;5102316;28;20650;-77
2023/07/18 11:52:04;;;;;;;4.63;3.67;;;25.50;99.90;;;;;;5099269;28;20277;-77
2023/07/18 11:54:30;;;;;;;5.13;4.07;;;25.20;99.90;;;;;;5111951;28;20682;-77
2023/07/18 11:56:57;;;;;;;8.53;7.73;;;25.00;99.90;;;;;;5103221;28;20667;-77
2023/07/18 11:59:25;;;;;;;8.13;7.27;;;24.90;99.90;;;;;;5107554;28;20301;-77
2023/07/18 12:01:52;;;;;;;7.60;7.00;;;24.80;99.90;;;;;;5098472;28;20217;-77
2023/07/18 12:04:19;;;;;;;7.50;6.90;;;24.80;99.90;;;;;;5108516;27;20662;-77
2023/07/18 12:06:46;;;;;;;5.20;4.20;;;24.90;99.90;;;;;;5109070;28;20224;-77
2023/07/18 12:09:13;;;;;;;5.13;3.70;;;25.10;99.90;;;;;;5103333;28;20686;-78
2023/07/18 12:11:40;;;;;;;4.90;3.70;;;25.20;99.90;;;;;;5101320;28;20197;-77
2023/07/18 12:14:08;;;;;;;5.63;3.73;;;25.20;99.90;;;;;;5107337;28;20189;-77
2023/07/18 12:16:37;;;;;;;6.97;5.73;;;25.20;99.90;;;;;;5109099;28;21590;-76
2023/07/18 12:19:04;;;;;;;7.50;6.00;;;25.10;99.90;;;;;;5099709;28;20563;-77
2023/07/18 12:21:31;;;;;;;4.60;3.57;;;25.40;99.90;;;;;;5115336;28;20205;-78
2023/07/18 12:23:58;;;;;;;4.90;4.40;;;25.70;99.90;;;;;;5110557;28;20682;-78
2023/07/18 12:26:24;;;;;;;6.70;6.20;;;26.00;99.90;;;;;;5102087;28;20193;-78
2023/07/18 12:28:51;;;;;;;6.80;6.20;;;26.20;99.90;;;;;;5111868;28;20221;-79
2023/07/18 12:31:18;;;;;;;6.93;6.23;;;26.10;99.90;;;;;;5113442;28;20189;-78
2023/07/18 12:33:46;;;;;;;7.20;6.50;;;26.20;99.90;;;;;;5108385;28;20193;-78
2023/07/18 12:36:13;;;;;;;7.20;6.53;;;26.10;99.90;;;;;;5106444;28;20190;-77
2023/07/18 12:38:40;;;;;;;7.73;6.60;;;26.20;99.90;;;;;;5112435;28;20611;-78
2023/07/18 12:41:08;;;;;;;5.40;3.53;;;26.20;99.90;;;;;;5106242;28;20209;-78
2023/07/18 12:43:35;;;;;;;7.97;5.40;;;26.30;99.90;;;;;;5107122;28;20201;-78
2023/07/18 12:46:01;;;;;;;3.80;3.37;;;26.50;99.90;;;;;;5108355;28;20197;-78
2023/07/18 12:48:28;;;;;;;5.80;4.77;;;26.80;99.90;;;;;;5101618;28;20729;-78
2023/07/18 12:50:56;;;;;;;4.53;3.73;;;27.00;99.90;;;;;;5108191;28;20185;-78
2023/07/18 12:53:23;;;;;;;3.50;3.20;;;27.30;99.90;;;;;;5108509;28;20191;-77